ADDS METAR Data INFO
IDs: Format: Raw Decoded Include TAF

Data at: 0102 UTC 24 Aug 2017

KAQO 240055Z AUTO 00000KT 10SM CLR 27/23 A2997 RMK AO2
KAQO 240035Z AUTO 34004KT 10SM CLR 27/23 A2997 RMK AO2
KAQO 240015Z AUTO 00000KT 10SM CLR 27/23 A2996 RMK AO2
KAQO 232355Z AUTO 00000KT 10SM CLR 27/23 A2996 RMK AO2 LTG DSNT NE
KAQO 232335Z AUTO 00000KT 10SM CLR 27/23 A2996 RMK AO2 LTG DSNT NE AND SW
KAQO 232315Z AUTO 29003KT 10SM FEW080 28/22 A2996 RMK AO2 LTG DSNT NE
KAQO 232255Z AUTO 00000KT 10SM CLR 29/21 A2997 RMK AO2 LTG DSNT NE AND E
KAQO 232235Z AUTO 00000KT 10SM CLR 30/21 A2996 RMK AO2 LTG DSNT NE
KAQO 232215Z AUTO 00000KT 10SM CLR 29/22 A2998 RMK AO2 LTG DSNT NE
KAQO 232155Z AUTO 24005KT 10SM FEW080 28/22 A2999 RMK AO2 LTG DSNT ALQDS
KAQO 232135Z AUTO 00000KT 10SM FEW100 27/22 A2998 RMK AO2 LTG DSNT NE AND SW AND NW
KAQO 232115Z AUTO 00000KT 10SM FEW100 27/22 A2999 RMK AO2
KAQO 232055Z AUTO 14004KT 10SM CLR 28/23 A3000 RMK AO2 LTG DSNT NE AND SW
KAQO 232035Z AUTO 06008G14KT 10SM FEW060 26/22 A2999 RMK AO2 LTG DSNT SE AND SW
KAQO 232015Z AUTO 05011G15KT 10SM FEW090 26/22 A2999 RMK AO2 LTG DSNT SW
KAQO 231955Z AUTO 05008KT 10SM TS CLR 25/22 A3000 RMK AO2 LTG DSNT ALQDS
KAQO 231935Z AUTO 00000KT 10SM VCTS CLR 24/23 A3001 RMK AO2 LTG DSNT NE AND SW
KAQO 231915Z AUTO 00000KT 10SM TS CLR 24/22 A3002 RMK AO2 LTG DSNT NE AND SE AND SW
KAQO 231855Z AUTO 00000KT 10SM VCTS -RA FEW001 SCT031 SCT046 24/21 A3002 RMK AO2 LTG DSNT NE-S P0010
KAQO 231835Z AUTO 04005KT 3SM VCTS -RA BKN001 BKN013 OVC028 24/22 A3005 RMK AO2 LTG DSNT ALQDS P0009
KAQO 231815Z AUTO 36010KT 3SM VCTS RA 25/22 A3006 RMK AO2 LTG DSNT SE AND NW P0005
KAQO 231655Z AUTO 00000KT 10SM CLR 33/21 A3006 RMK AO2
KAQO 231635Z AUTO 30006KT 10SM CLR 32/20 A3006 RMK AO2
KAQO 231615Z AUTO 29005KT 10SM CLR 31/21 A3007 RMK AO2
KAQO 231555Z AUTO 28006KT 10SM CLR 31/21 A3007 RMK AO2
KAQO 231535Z AUTO 29005KT 10SM CLR 30/21 A3007 RMK AO2
KAQO 231515Z AUTO 29006KT 10SM CLR 30/21 A3008 RMK AO2
KAQO 231455Z AUTO 00000KT 10SM CLR 29/21 A3008 RMK AO2
KAQO 231435Z AUTO 28003KT 10SM CLR 28/21 A3007 RMK AO2
KAQO 231415Z AUTO 00000KT 10SM FEW085 28/21 A3007 RMK AO2
KAQO 231355Z AUTO 00000KT 10SM FEW085 27/21 A3007 RMK AO2
KAQO 231335Z AUTO 00000KT 10SM FEW095 26/21 A3007 RMK AO2
KAQO 231315Z AUTO 00000KT 10SM FEW095 26/21 A3006 RMK AO2
KAQO 231255Z AUTO 00000KT 10SM CLR 24/21 A3006 RMK AO2
KAQO 231235Z AUTO 00000KT 10SM CLR 23/21 A3006 RMK AO2
KAQO 231215Z AUTO 00000KT 10SM CLR 23/20 A3006 RMK AO2
KAQO 231155Z AUTO 00000KT 10SM FEW095 23/20 A3005 RMK AO2
KAQO 231135Z AUTO 00000KT 10SM FEW095 23/20 A3005 RMK AO2
KAQO 231115Z AUTO 00000KT 10SM CLR 23/20 A3006 RMK AO2
KAQO 231055Z AUTO 00000KT 10SM CLR 23/20 A3005 RMK AO2
KAQO 231035Z AUTO 00000KT 10SM CLR 24/20 A3006 RMK AO2
KAQO 231015Z AUTO 00000KT 10SM CLR 24/20 A3005 RMK AO2
KAQO 230955Z AUTO 00000KT 10SM CLR 24/19 A3005 RMK AO2
KAQO 230935Z AUTO 00000KT 10SM CLR 24/19 A3005 RMK AO2
KAQO 230915Z AUTO 00000KT 10SM SCT085 24/19 A3005 RMK AO2
KAQO 230855Z AUTO 00000KT 10SM SCT085 24/19 A3006 RMK AO2
KAQO 230835Z AUTO 00000KT 10SM CLR 23/20 A3005 RMK AO2
KAQO 230815Z AUTO 00000KT 10SM CLR 24/19 A3005 RMK AO2
KAQO 230755Z AUTO 00000KT 10SM CLR 23/19 A3005 RMK AO2
KAQO 230735Z AUTO 00000KT 10SM CLR 23/19 A3005 RMK AO2
KAQO 230715Z AUTO 00000KT 10SM CLR 23/19 A3005 RMK AO2
KAQO 230655Z AUTO 00000KT 10SM CLR 23/19 A3005 RMK AO2
KAQO 230635Z AUTO 00000KT 10SM CLR 24/19 A3005 RMK AO2
KAQO 230615Z AUTO 00000KT 10SM CLR 23/19 A3006 RMK AO2
KAQO 230555Z AUTO 00000KT 10SM CLR 23/19 A3006 RMK AO2
KAQO 230535Z AUTO 00000KT 10SM CLR 24/19 A3006 RMK AO2
KAQO 230515Z AUTO 00000KT 10SM CLR 26/18 A3006 RMK AO2
KAQO 230455Z AUTO 00000KT 10SM CLR 25/19 A3005 RMK AO2
KAQO 230435Z AUTO 00000KT 10SM CLR 25/19 A3006 RMK AO2
KAQO 230415Z AUTO 00000KT 10SM CLR 26/19 A3005 RMK AO2
KAQO 230355Z AUTO 00000KT 10SM CLR 26/19 A3004 RMK AO2
KAQO 230335Z AUTO 00000KT 10SM CLR 27/19 A3004 RMK AO2
KAQO 230315Z AUTO 00000KT 10SM CLR 27/18 A3003 RMK AO2
KAQO 230255Z AUTO 00000KT 10SM CLR 28/18 A3003 RMK AO2
KAQO 230235Z AUTO 00000KT 10SM CLR 27/19 A3003 RMK AO2
KAQO 230215Z AUTO 00000KT 10SM CLR 28/19 A3003 RMK AO2
KAQO 230155Z AUTO 00000KT 10SM CLR 29/19 A3002 RMK AO2
KAQO 230135Z AUTO 00000KT 10SM CLR 30/19 A3002 RMK AO2 TSNO
KAQO 230115Z AUTO 00000KT 10SM CLR 31/19 A3002 RMK AO2 TSNO
KAQO 230055Z AUTO 14003KT 10SM CLR 32/19 A3001 RMK AO2 TSNO
KAQO 230035Z AUTO 00000KT 10SM CLR 33/18 A3000 RMK AO2 TSNO
KAQO 230015Z AUTO 00000KT 10SM CLR 34/17 A3000 RMK AO2 TSNO
KAQO 222355Z AUTO 14004KT 10SM CLR 34/18 A3000 RMK AO2 TSNO
KAQO 222335Z AUTO 14004KT 10SM CLR 35/18 A3000 RMK AO2 TSNO
KAQO 222315Z AUTO 14006KT 10SM CLR 35/18 A3000 RMK AO2 TSNO
KAQO 222255Z AUTO 13006KT 10SM CLR 36/17 A3001 RMK AO2 TSNO
KAQO 222235Z AUTO 13006KT 10SM CLR 36/18 A3001 RMK AO2 TSNO
KAQO 222215Z AUTO 14006KT 10SM CLR 36/18 A3002 RMK AO2 TSNO
KAQO 222155Z AUTO 11004KT 10SM CLR 36/18 A3003 RMK AO2 TSNO
KAQO 222135Z AUTO 13006KT 10SM CLR 36/17 A3004 RMK AO2 TSNO
KAQO 222115Z AUTO 12007KT 10SM CLR 36/18 A3005 RMK AO2 TSNO
KAQO 222055Z AUTO 16005KT 10SM CLR 36/18 A3006 RMK AO2 TSNO
KAQO 222035Z AUTO 00000KT 8SM CLR 36/18 A3006 RMK AO2 TSNO
KAQO 222015Z AUTO 00000KT 10SM CLR 35/18 A3007 RMK AO2 TSNO
KAQO 221955Z AUTO 14005KT 10SM CLR 35/18 A3008 RMK AO2 TSNO
KAQO 221935Z AUTO 15006KT 10SM FEW055 35/19 A3009 RMK AO2 TSNO
KAQO 221915Z AUTO 08004KT 9SM CLR 34/21 A3009 RMK AO2 TSNO
KAQO 221855Z AUTO 00000KT 10SM CLR 33/20 A3010 RMK AO2 TSNO
KAQO 221835Z AUTO 00000KT 10SM CLR 33/21 A3010 RMK AO2 TSNO
KAQO 221815Z AUTO 12006KT 10SM CLR 33/21 A3011 RMK AO2 TSNO
KAQO 221755Z AUTO 15003KT 10SM CLR 33/21 A3012 RMK AO2 TSNO
KAQO 221735Z AUTO 10004KT 10SM CLR 32/21 A3013 RMK AO2 TSNO
KAQO 221715Z AUTO 16003KT 10SM CLR 32/21 A3014 RMK AO2 TSNO
KAQO 221655Z AUTO 14005KT 10SM CLR 31/21 A3014 RMK AO2 TSNO
KAQO 221635Z AUTO 19004KT 10SM CLR 31/21 A3014 RMK AO2 TSNO
KAQO 221615Z AUTO 00000KT 10SM CLR 29/21 A3014 RMK AO2 TSNO
KAQO 221555Z AUTO 20005KT 10SM CLR 29/22 A3014 RMK AO2 TSNO
KAQO 221535Z AUTO 19004KT 10SM CLR 29/22 A3014 RMK AO2 TSNO
KAQO 221515Z AUTO 22004KT 10SM CLR 28/22 A3014 RMK AO2 TSNO
KAQO 221455Z AUTO 20006KT 10SM CLR 28/21 A3013 RMK AO2 TSNO
KAQO 221435Z AUTO 26004KT 10SM CLR 27/21 A3013 RMK AO2 TSNO
KAQO 221415Z AUTO 26003KT 10SM CLR 27/21 A3013 RMK AO2 TSNO
KAQO 221355Z AUTO 00000KT 10SM CLR 26/21 A3012 RMK AO2 TSNO
KAQO 221335Z AUTO 00000KT 7SM CLR 25/22 A3012 RMK AO2 TSNO
KAQO 221315Z AUTO 00000KT 10SM CLR 24/21 A3012 RMK AO2 TSNO